sensor_id;sensor_type;location;lat;lon;timestamp;P1;durP1;ratioP1;P2;durP2;ratioP2
32633;SDS011;19043;51.012;5.648;2024-03-08T00:02:19;20.88;;;14.75;;
32633;SDS011;19043;51.012;5.648;2024-03-08T00:04:44;24.23;;;15.10;;
32633;SDS011;19043;51.012;5.648;2024-03-08T00:07:10;23.05;;;15.65;;
32633;SDS011;19043;51.012;5.648;2024-03-08T00:09:35;25.15;;;15.93;;
32633;SDS011;19043;51.012;5.648;2024-03-08T00:12:00;19.55;;;14.82;;
32633;SDS011;19043;51.012;5.648;2024-03-08T00:14:25;28.45;;;16.55;;
32633;SDS011;19043;51.012;5.648;2024-03-08T00:16:51;23.33;;;15.57;;
32633;SDS011;19043;51.012;5.648;2024-03-08T00:19:19;23.65;;;15.25;;
32633;SDS011;19043;51.012;5.648;2024-03-08T00:21:44;24.23;;;15.65;;
32633;SDS011;19043;51.012;5.648;2024-03-08T00:24:10;21.98;;;14.52;;
32633;SDS011;19043;51.012;5.648;2024-03-08T00:26:35;20.70;;;15.35;;
32633;SDS011;19043;51.012;5.648;2024-03-08T00:29:00;24.00;;;15.85;;
32633;SDS011;19043;51.012;5.648;2024-03-08T00:31:25;25.77;;;15.63;;
32633;SDS011;19043;51.012;5.648;2024-03-08T00:33:51;24.55;;;15.93;;
32633;SDS011;19043;51.012;5.648;2024-03-08T00:36:17;18.83;;;14.52;;
32633;SDS011;19043;51.012;5.648;2024-03-08T00:38:42;25.70;;;15.32;;
32633;SDS011;19043;51.012;5.648;2024-03-08T00:41:08;19.95;;;14.43;;
32633;SDS011;19043;51.012;5.648;2024-03-08T00:43:33;21.10;;;15.55;;
32633;SDS011;19043;51.012;5.648;2024-03-08T00:45:59;22.88;;;15.55;;
32633;SDS011;19043;51.012;5.648;2024-03-08T00:48:24;23.20;;;14.43;;
32633;SDS011;19043;51.012;5.648;2024-03-08T00:50:49;24.42;;;15.80;;
32633;SDS011;19043;51.012;5.648;2024-03-08T00:53:15;22.20;;;15.65;;
32633;SDS011;19043;51.012;5.648;2024-03-08T00:55:40;22.58;;;15.68;;
32633;SDS011;19043;51.012;5.648;2024-03-08T00:58:05;21.58;;;15.82;;
32633;SDS011;19043;51.012;5.648;2024-03-08T01:00:30;24.23;;;15.38;;
32633;SDS011;19043;51.012;5.648;2024-03-08T01:02:56;26.55;;;18.52;;
32633;SDS011;19043;51.012;5.648;2024-03-08T01:05:21;28.08;;;17.90;;
32633;SDS011;19043;51.012;5.648;2024-03-08T01:07:48;26.27;;;17.00;;
32633;SDS011;19043;51.012;5.648;2024-03-08T01:10:14;25.33;;;16.10;;
32633;SDS011;19043;51.012;5.648;2024-03-08T01:12:40;27.80;;;16.60;;
32633;SDS011;19043;51.012;5.648;2024-03-08T01:15:05;26.55;;;17.45;;
32633;SDS011;19043;51.012;5.648;2024-03-08T01:17:30;25.50;;;15.70;;
32633;SDS011;19043;51.012;5.648;2024-03-08T01:19:56;21.90;;;16.20;;
32633;SDS011;19043;51.012;5.648;2024-03-08T01:22:21;26.58;;;16.30;;
32633;SDS011;19043;51.012;5.648;2024-03-08T01:24:47;27.45;;;16.90;;
32633;SDS011;19043;51.012;5.648;2024-03-08T01:27:12;24.60;;;15.63;;
32633;SDS011;19043;51.012;5.648;2024-03-08T01:29:38;23.85;;;16.02;;
32633;SDS011;19043;51.012;5.648;2024-03-08T01:32:03;23.60;;;16.10;;
32633;SDS011;19043;51.012;5.648;2024-03-08T01:34:28;25.73;;;17.77;;
32633;SDS011;19043;51.012;5.648;2024-03-08T01:36:54;23.15;;;17.40;;
32633;SDS011;19043;51.012;5.648;2024-03-08T01:39:21;26.45;;;16.08;;
32633;SDS011;19043;51.012;5.648;2024-03-08T01:41:47;28.55;;;16.45;;
32633;SDS011;19043;51.012;5.648;2024-03-08T01:44:12;25.52;;;16.48;;
32633;SDS011;19043;51.012;5.648;2024-03-08T01:46:40;24.38;;;16.38;;
32633;SDS011;19043;51.012;5.648;2024-03-08T01:49:06;22.80;;;16.33;;
32633;SDS011;19043;51.012;5.648;2024-03-08T01:51:31;25.67;;;15.82;;
32633;SDS011;19043;51.012;5.648;2024-03-08T01:53:57;27.08;;;16.40;;
32633;SDS011;19043;51.012;5.648;2024-03-08T01:56:23;22.17;;;15.68;;
32633;SDS011;19043;51.012;5.648;2024-03-08T01:58:48;25.75;;;16.83;;
32633;SDS011;19043;51.012;5.648;2024-03-08T02:01:14;26.17;;;16.95;;
32633;SDS011;19043;51.012;5.648;2024-03-08T02:03:40;26.30;;;17.05;;
32633;SDS011;19043;51.012;5.648;2024-03-08T02:06:05;29.77;;;17.25;;
32633;SDS011;19043;51.012;5.648;2024-03-08T02:08:34;24.85;;;17.48;;
32633;SDS011;19043;51.012;5.648;2024-03-08T02:11:00;25.42;;;16.48;;
32633;SDS011;19043;51.012;5.648;2024-03-08T02:13:27;26.90;;;16.75;;
32633;SDS011;19043;51.012;5.648;2024-03-08T02:15:59;22.50;;;15.00;;
32633;SDS011;19043;51.012;5.648;2024-03-08T02:18:25;27.70;;;17.65;;
32633;SDS011;19043;51.012;5.648;2024-03-08T02:20:51;26.42;;;16.83;;
32633;SDS011;19043;51.012;5.648;2024-03-08T02:23:17;23.80;;;16.75;;
32633;SDS011;19043;51.012;5.648;2024-03-08T02:25:42;23.05;;;15.65;;
32633;SDS011;19043;51.012;5.648;2024-03-08T02:28:11;26.00;;;15.73;;
32633;SDS011;19043;51.012;5.648;2024-03-08T02:30:36;26.15;;;15.95;;
32633;SDS011;19043;51.012;5.648;2024-03-08T02:33:02;25.73;;;16.92;;
32633;SDS011;19043;51.012;5.648;2024-03-08T02:35:27;25.50;;;15.55;;
32633;SDS011;19043;51.012;5.648;2024-03-08T02:37:52;27.00;;;16.42;;
32633;SDS011;19043;51.012;5.648;2024-03-08T02:40:18;25.83;;;15.80;;
32633;SDS011;19043;51.012;5.648;2024-03-08T02:42:43;24.85;;;16.27;;
32633;SDS011;19043;51.012;5.648;2024-03-08T02:45:08;29.05;;;16.63;;
32633;SDS011;19043;51.012;5.648;2024-03-08T02:47:35;21.52;;;14.93;;
32633;SDS011;19043;51.012;5.648;2024-03-08T02:50:00;26.40;;;16.02;;
32633;SDS011;19043;51.012;5.648;2024-03-08T02:52:26;25.92;;;16.52;;
32633;SDS011;19043;51.012;5.648;2024-03-08T02:54:51;26.50;;;17.02;;
32633;SDS011;19043;51.012;5.648;2024-03-08T02:57:17;27.17;;;16.00;;
32633;SDS011;19043;51.012;5.648;2024-03-08T02:59:43;27.05;;;16.83;;
32633;SDS011;19043;51.012;5.648;2024-03-08T03:02:08;25.42;;;17.05;;
32633;SDS011;19043;51.012;5.648;2024-03-08T03:04:35;22.88;;;15.82;;
32633;SDS011;19043;51.012;5.648;2024-03-08T03:07:00;24.15;;;15.93;;
32633;SDS011;19043;51.012;5.648;2024-03-08T03:09:26;24.00;;;15.35;;
32633;SDS011;19043;51.012;5.648;2024-03-08T03:11:53;27.10;;;16.92;;
32633;SDS011;19043;51.012;5.648;2024-03-08T03:14:18;25.02;;;16.77;;
32633;SDS011;19043;51.012;5.648;2024-03-08T03:16:44;26.10;;;16.33;;
32633;SDS011;19043;51.012;5.648;2024-03-08T03:19:10;28.30;;;16.40;;
32633;SDS011;19043;51.012;5.648;2024-03-08T03:21:36;29.38;;;16.52;;
32633;SDS011;19043;51.012;5.648;2024-03-08T03:24:03;28.48;;;16.58;;
32633;SDS011;19043;51.012;5.648;2024-03-08T03:26:29;26.23;;;16.63;;
32633;SDS011;19043;51.012;5.648;2024-03-08T03:28:55;25.55;;;16.05;;
32633;SDS011;19043;51.012;5.648;2024-03-08T03:31:20;22.55;;;15.63;;
32633;SDS011;19043;51.012;5.648;2024-03-08T03:33:48;29.20;;;17.38;;
32633;SDS011;19043;51.012;5.648;2024-03-08T03:36:16;30.20;;;17.05;;
32633;SDS011;19043;51.012;5.648;2024-03-08T03:38:41;23.02;;;16.15;;
32633;SDS011;19043;51.012;5.648;2024-03-08T03:41:07;26.00;;;16.42;;
32633;SDS011;19043;51.012;5.648;2024-03-08T03:43:35;24.88;;;16.60;;
32633;SDS011;19043;51.012;5.648;2024-03-08T03:46:05;26.08;;;15.57;;
32633;SDS011;19043;51.012;5.648;2024-03-08T03:48:30;24.92;;;15.77;;
32633;SDS011;19043;51.012;5.648;2024-03-08T03:50:57;22.30;;;15.77;;
32633;SDS011;19043;51.012;5.648;2024-03-08T03:53:22;27.25;;;16.50;;
32633;SDS011;19043;51.012;5.648;2024-03-08T03:55:47;26.02;;;17.00;;
32633;SDS011;19043;51.012;5.648;2024-03-08T03:58:12;26.65;;;16.27;;
32633;SDS011;19043;51.012;5.648;2024-03-08T04:00:38;26.50;;;16.92;;
32633;SDS011;19043;51.012;5.648;2024-03-08T04:03:03;22.98;;;16.30;;
32633;SDS011;19043;51.012;5.648;2024-03-08T04:05:29;27.83;;;16.40;;
32633;SDS011;19043;51.012;5.648;2024-03-08T04:07:54;29.95;;;15.75;;
32633;SDS011;19043;51.012;5.648;2024-03-08T04:10:19;28.48;;;17.17;;
32633;SDS011;19043;51.012;5.648;2024-03-08T04:12:45;27.38;;;17.77;;
32633;SDS011;19043;51.012;5.648;2024-03-08T04:15:10;24.98;;;15.95;;
32633;SDS011;19043;51.012;5.648;2024-03-08T04:17:35;24.15;;;16.83;;
32633;SDS011;19043;51.012;5.648;2024-03-08T04:20:02;25.98;;;16.55;;
32633;SDS011;19043;51.012;5.648;2024-03-08T04:22:34;27.40;;;17.73;;
32633;SDS011;19043;51.012;5.648;2024-03-08T04:25:00;29.27;;;16.83;;
32633;SDS011;19043;51.012;5.648;2024-03-08T04:27:25;26.63;;;17.25;;
32633;SDS011;19043;51.012;5.648;2024-03-08T04:29:50;26.73;;;17.10;;
32633;SDS011;19043;51.012;5.648;2024-03-08T04:32:16;29.67;;;18.52;;
32633;SDS011;19043;51.012;5.648;2024-03-08T04:34:42;27.25;;;17.10;;
32633;SDS011;19043;51.012;5.648;2024-03-08T04:37:07;31.55;;;17.92;;
32633;SDS011;19043;51.012;5.648;2024-03-08T04:39:35;21.60;;;16.02;;
32633;SDS011;19043;51.012;5.648;2024-03-08T04:42:02;26.88;;;17.20;;
32633;SDS011;19043;51.012;5.648;2024-03-08T04:44:31;26.73;;;17.25;;
32633;SDS011;19043;51.012;5.648;2024-03-08T04:46:58;23.65;;;15.50;;
32633;SDS011;19043;51.012;5.648;2024-03-08T04:49:23;25.52;;;16.15;;
32633;SDS011;19043;51.012;5.648;2024-03-08T04:51:49;26.55;;;17.10;;
32633;SDS011;19043;51.012;5.648;2024-03-08T04:54:14;25.60;;;17.23;;
32633;SDS011;19043;51.012;5.648;2024-03-08T04:56:39;26.98;;;16.42;;
32633;SDS011;19043;51.012;5.648;2024-03-08T04:59:04;31.45;;;16.45;;
32633;SDS011;19043;51.012;5.648;2024-03-08T05:01:33;28.83;;;17.80;;
32633;SDS011;19043;51.012;5.648;2024-03-08T05:03:58;28.77;;;17.42;;
32633;SDS011;19043;51.012;5.648;2024-03-08T05:06:23;26.98;;;16.63;;
32633;SDS011;19043;51.012;5.648;2024-03-08T05:08:49;27.55;;;17.42;;
32633;SDS011;19043;51.012;5.648;2024-03-08T05:11:14;26.23;;;15.73;;
32633;SDS011;19043;51.012;5.648;2024-03-08T05:13:39;29.05;;;16.50;;
32633;SDS011;19043;51.012;5.648;2024-03-08T05:16:05;27.75;;;16.33;;
32633;SDS011;19043;51.012;5.648;2024-03-08T05:18:32;26.60;;;17.50;;
32633;SDS011;19043;51.012;5.648;2024-03-08T05:20:58;22.80;;;15.38;;
32633;SDS011;19043;51.012;5.648;2024-03-08T05:23:23;27.27;;;16.33;;
32633;SDS011;19043;51.012;5.648;2024-03-08T05:25:48;27.10;;;16.75;;
32633;SDS011;19043;51.012;5.648;2024-03-08T05:28:13;25.10;;;16.58;;
32633;SDS011;19043;51.012;5.648;2024-03-08T05:30:39;30.95;;;17.73;;
32633;SDS011;19043;51.012;5.648;2024-03-08T05:33:04;27.38;;;16.67;;
32633;SDS011;19043;51.012;5.648;2024-03-08T05:35:30;27.95;;;16.77;;
32633;SDS011;19043;51.012;5.648;2024-03-08T05:37:55;27.80;;;17.70;;
32633;SDS011;19043;51.012;5.648;2024-03-08T05:40:20;25.95;;;16.33;;
32633;SDS011;19043;51.012;5.648;2024-03-08T05:42:46;25.27;;;17.02;;
32633;SDS011;19043;51.012;5.648;2024-03-08T05:45:11;27.25;;;17.20;;
32633;SDS011;19043;51.012;5.648;2024-03-08T05:47:36;29.65;;;16.83;;
32633;SDS011;19043;51.012;5.648;2024-03-08T05:50:04;25.52;;;16.75;;
32633;SDS011;19043;51.012;5.648;2024-03-08T05:52:29;27.83;;;17.13;;
32633;SDS011;19043;51.012;5.648;2024-03-08T05:54:54;28.10;;;16.40;;
32633;SDS011;19043;51.012;5.648;2024-03-08T05:57:20;27.65;;;16.73;;
32633;SDS011;19043;51.012;5.648;2024-03-08T05:59:47;28.05;;;16.65;;
32633;SDS011;19043;51.012;5.648;2024-03-08T06:02:13;32.35;;;18.55;;
32633;SDS011;19043;51.012;5.648;2024-03-08T06:04:41;27.88;;;17.63;;
32633;SDS011;19043;51.012;5.648;2024-03-08T06:07:07;37.92;;;17.20;;
32633;SDS011;19043;51.012;5.648;2024-03-08T06:09:37;28.75;;;17.52;;
32633;SDS011;19043;51.012;5.648;2024-03-08T06:12:02;26.45;;;17.20;;
32633;SDS011;19043;51.012;5.648;2024-03-08T06:14:29;27.70;;;17.17;;
32633;SDS011;19043;51.012;5.648;2024-03-08T06:16:55;31.88;;;19.17;;
32633;SDS011;19043;51.012;5.648;2024-03-08T06:19:20;27.10;;;16.95;;
32633;SDS011;19043;51.012;5.648;2024-03-08T06:21:45;29.73;;;18.10;;
32633;SDS011;19043;51.012;5.648;2024-03-08T06:24:10;28.90;;;17.88;;
32633;SDS011;19043;51.012;5.648;2024-03-08T06:26:36;24.52;;;16.88;;
32633;SDS011;19043;51.012;5.648;2024-03-08T06:29:02;29.42;;;18.02;;
32633;SDS011;19043;51.012;5.648;2024-03-08T06:31:31;30.45;;;18.50;;
32633;SDS011;19043;51.012;5.648;2024-03-08T06:33:56;26.77;;;17.45;;
32633;SDS011;19043;51.012;5.648;2024-03-08T06:36:22;27.75;;;17.15;;
32633;SDS011;19043;51.012;5.648;2024-03-08T06:38:51;29.00;;;18.85;;
32633;SDS011;19043;51.012;5.648;2024-03-08T06:41:16;32.50;;;18.33;;
32633;SDS011;19043;51.012;5.648;2024-03-08T06:43:42;31.13;;;16.67;;
32633;SDS011;19043;51.012;5.648;2024-03-08T06:46:07;28.17;;;16.90;;
32633;SDS011;19043;51.012;5.648;2024-03-08T06:48:33;31.63;;;16.92;;
32633;SDS011;19043;51.012;5.648;2024-03-08T06:50:58;26.23;;;16.92;;
32633;SDS011;19043;51.012;5.648;2024-03-08T06:53:23;26.80;;;15.60;;
32633;SDS011;19043;51.012;5.648;2024-03-08T06:55:50;30.02;;;15.90;;
32633;SDS011;19043;51.012;5.648;2024-03-08T06:58:15;29.35;;;17.60;;
32633;SDS011;19043;51.012;5.648;2024-03-08T07:00:41;28.30;;;16.58;;
32633;SDS011;19043;51.012;5.648;2024-03-08T07:03:07;31.42;;;17.35;;
32633;SDS011;19043;51.012;5.648;2024-03-08T07:05:32;33.47;;;17.05;;
32633;SDS011;19043;51.012;5.648;2024-03-08T07:07:58;29.98;;;17.58;;
32633;SDS011;19043;51.012;5.648;2024-03-08T07:10:23;28.55;;;17.73;;
32633;SDS011;19043;51.012;5.648;2024-03-08T07:12:49;30.65;;;17.77;;
32633;SDS011;19043;51.012;5.648;2024-03-08T07:15:15;25.15;;;16.30;;
32633;SDS011;19043;51.012;5.648;2024-03-08T07:17:41;30.30;;;17.40;;
32633;SDS011;19043;51.012;5.648;2024-03-08T07:20:09;30.52;;;17.52;;
32633;SDS011;19043;51.012;5.648;2024-03-08T07:22:37;27.25;;;17.63;;
32633;SDS011;19043;51.012;5.648;2024-03-08T07:25:04;28.80;;;17.42;;
32633;SDS011;19043;51.012;5.648;2024-03-08T07:27:44;27.52;;;17.20;;
32633;SDS011;19043;51.012;5.648;2024-03-08T07:30:11;27.40;;;16.05;;
32633;SDS011;19043;51.012;5.648;2024-03-08T07:32:36;25.73;;;15.45;;
32633;SDS011;19043;51.012;5.648;2024-03-08T07:35:01;29.13;;;16.45;;
32633;SDS011;19043;51.012;5.648;2024-03-08T07:37:27;27.90;;;16.83;;
32633;SDS011;19043;51.012;5.648;2024-03-08T07:39:52;27.48;;;16.85;;
32633;SDS011;19043;51.012;5.648;2024-03-08T07:42:17;23.65;;;15.40;;
32633;SDS011;19043;51.012;5.648;2024-03-08T07:44:42;28.90;;;16.88;;
32633;SDS011;19043;51.012;5.648;2024-03-08T07:47:08;25.65;;;14.88;;
32633;SDS011;19043;51.012;5.648;2024-03-08T07:49:34;28.23;;;16.35;;
32633;SDS011;19043;51.012;5.648;2024-03-08T07:52:00;24.35;;;16.45;;
32633;SDS011;19043;51.012;5.648;2024-03-08T07:54:25;24.23;;;16.73;;
32633;SDS011;19043;51.012;5.648;2024-03-08T07:56:51;28.08;;;15.68;;
32633;SDS011;19043;51.012;5.648;2024-03-08T07:59:16;28.23;;;16.40;;
32633;SDS011;19043;51.012;5.648;2024-03-08T08:01:41;25.50;;;15.48;;
32633;SDS011;19043;51.012;5.648;2024-03-08T08:04:06;25.02;;;15.18;;
32633;SDS011;19043;51.012;5.648;2024-03-08T08:06:35;25.80;;;16.17;;
32633;SDS011;19043;51.012;5.648;2024-03-08T08:09:02;24.58;;;16.13;;
32633;SDS011;19043;51.012;5.648;2024-03-08T08:11:27;26.60;;;15.70;;
32633;SDS011;19043;51.012;5.648;2024-03-08T08:13:55;24.83;;;15.48;;
32633;SDS011;19043;51.012;5.648;2024-03-08T08:16:24;23.08;;;15.48;;
32633;SDS011;19043;51.012;5.648;2024-03-08T08:18:50;26.88;;;15.85;;
32633;SDS011;19043;51.012;5.648;2024-03-08T08:21:16;25.80;;;16.13;;
32633;SDS011;19043;51.012;5.648;2024-03-08T08:23:41;21.52;;;14.63;;
32633;SDS011;19043;51.012;5.648;2024-03-08T08:26:06;23.63;;;16.15;;
32633;SDS011;19043;51.012;5.648;2024-03-08T08:28:32;27.20;;;15.10;;
32633;SDS011;19043;51.012;5.648;2024-03-08T08:30:58;26.85;;;17.00;;
32633;SDS011;19043;51.012;5.648;2024-03-08T08:33:24;24.83;;;15.40;;
32633;SDS011;19043;51.012;5.648;2024-03-08T08:35:50;20.25;;;14.32;;
32633;SDS011;19043;51.012;5.648;2024-03-08T08:38:18;24.27;;;15.52;;
32633;SDS011;19043;51.012;5.648;2024-03-08T08:40:45;20.63;;;14.93;;
32633;SDS011;19043;51.012;5.648;2024-03-08T08:43:10;21.42;;;15.05;;
32633;SDS011;19043;51.012;5.648;2024-03-08T08:45:35;24.63;;;15.90;;
32633;SDS011;19043;51.012;5.648;2024-03-08T08:48:01;27.77;;;15.30;;
32633;SDS011;19043;51.012;5.648;2024-03-08T08:50:26;23.83;;;15.68;;
32633;SDS011;19043;51.012;5.648;2024-03-08T08:52:53;26.75;;;14.73;;
32633;SDS011;19043;51.012;5.648;2024-03-08T08:55:19;23.38;;;14.50;;
32633;SDS011;19043;51.012;5.648;2024-03-08T08:57:46;23.23;;;14.43;;
32633;SDS011;19043;51.012;5.648;2024-03-08T09:00:12;25.02;;;15.32;;
32633;SDS011;19043;51.012;5.648;2024-03-08T09:02:40;25.30;;;14.40;;
32633;SDS011;19043;51.012;5.648;2024-03-08T09:05:06;21.60;;;14.15;;
32633;SDS011;19043;51.012;5.648;2024-03-08T09:07:32;24.00;;;14.30;;
32633;SDS011;19043;51.012;5.648;2024-03-08T09:09:58;26.73;;;14.63;;
32633;SDS011;19043;51.012;5.648;2024-03-08T09:12:24;22.88;;;13.18;;
32633;SDS011;19043;51.012;5.648;2024-03-08T09:14:49;20.70;;;13.45;;
32633;SDS011;19043;51.012;5.648;2024-03-08T09:17:15;23.15;;;13.55;;
32633;SDS011;19043;51.012;5.648;2024-03-08T09:19:48;24.20;;;13.75;;
32633;SDS011;19043;51.012;5.648;2024-03-08T09:22:13;23.52;;;14.07;;
32633;SDS011;19043;51.012;5.648;2024-03-08T09:24:39;18.42;;;13.20;;
32633;SDS011;19043;51.012;5.648;2024-03-08T09:27:04;20.15;;;13.00;;
32633;SDS011;19043;51.012;5.648;2024-03-08T09:29:29;21.92;;;13.68;;
32633;SDS011;19043;51.012;5.648;2024-03-08T09:31:54;26.48;;;14.32;;
32633;SDS011;19043;51.012;5.648;2024-03-08T09:34:20;20.02;;;12.68;;
32633;SDS011;19043;51.012;5.648;2024-03-08T09:36:46;24.98;;;14.73;;
32633;SDS011;19043;51.012;5.648;2024-03-08T09:39:11;20.35;;;13.05;;
32633;SDS011;19043;51.012;5.648;2024-03-08T09:41:42;22.17;;;14.07;;
32633;SDS011;19043;51.012;5.648;2024-03-08T09:44:07;22.42;;;13.45;;
32633;SDS011;19043;51.012;5.648;2024-03-08T09:46:33;20.70;;;13.98;;
32633;SDS011;19043;51.012;5.648;2024-03-08T09:48:59;20.27;;;13.45;;
32633;SDS011;19043;51.012;5.648;2024-03-08T09:51:27;25.95;;;13.68;;
32633;SDS011;19043;51.012;5.648;2024-03-08T09:53:53;22.40;;;14.35;;
32633;SDS011;19043;51.012;5.648;2024-03-08T09:56:19;22.60;;;12.65;;
32633;SDS011;19043;51.012;5.648;2024-03-08T09:58:44;23.73;;;14.07;;
32633;SDS011;19043;51.012;5.648;2024-03-08T10:01:39;19.83;;;13.27;;
32633;SDS011;19043;51.012;5.648;2024-03-08T10:04:04;20.92;;;12.93;;
32633;SDS011;19043;51.012;5.648;2024-03-08T10:06:29;22.95;;;13.30;;
32633;SDS011;19043;51.012;5.648;2024-03-08T10:08:56;20.08;;;13.48;;
32633;SDS011;19043;51.012;5.648;2024-03-08T10:11:21;20.55;;;12.80;;
32633;SDS011;19043;51.012;5.648;2024-03-08T10:13:47;24.58;;;14.07;;
32633;SDS011;19043;51.012;5.648;2024-03-08T10:16:13;22.15;;;13.52;;
32633;SDS011;19043;51.012;5.648;2024-03-08T10:18:38;21.35;;;13.35;;
32633;SDS011;19043;51.012;5.648;2024-03-08T10:21:04;21.25;;;12.65;;
32633;SDS011;19043;51.012;5.648;2024-03-08T10:23:29;19.95;;;12.05;;
32633;SDS011;19043;51.012;5.648;2024-03-08T10:25:55;23.95;;;12.32;;
32633;SDS011;19043;51.012;5.648;2024-03-08T10:28:23;19.73;;;12.60;;
32633;SDS011;19043;51.012;5.648;2024-03-08T10:30:51;17.70;;;12.88;;
32633;SDS011;19043;51.012;5.648;2024-03-08T10:33:16;18.98;;;12.55;;
32633;SDS011;19043;51.012;5.648;2024-03-08T10:35:41;21.20;;;12.88;;
32633;SDS011;19043;51.012;5.648;2024-03-08T10:38:07;18.33;;;12.38;;
32633;SDS011;19043;51.012;5.648;2024-03-08T10:40:35;18.50;;;12.95;;
32633;SDS011;19043;51.012;5.648;2024-03-08T10:43:04;20.27;;;12.18;;
32633;SDS011;19043;51.012;5.648;2024-03-08T10:45:35;19.85;;;13.48;;
32633;SDS011;19043;51.012;5.648;2024-03-08T10:50:28;15.80;;;11.90;;
32633;SDS011;19043;51.012;5.648;2024-03-08T10:52:55;19.30;;;12.55;;
32633;SDS011;19043;51.012;5.648;2024-03-08T10:55:22;19.80;;;13.30;;
32633;SDS011;19043;51.012;5.648;2024-03-08T10:57:48;20.30;;;12.70;;
32633;SDS011;19043;51.012;5.648;2024-03-08T11:00:14;18.50;;;11.73;;
32633;SDS011;19043;51.012;5.648;2024-03-08T11:02:43;21.10;;;12.88;;
32633;SDS011;19043;51.012;5.648;2024-03-08T11:05:15;19.88;;;11.75;;
32633;SDS011;19043;51.012;5.648;2024-03-08T11:07:55;17.48;;;11.65;;
32633;SDS011;19043;51.012;5.648;2024-03-08T11:10:21;25.17;;;12.90;;
32633;SDS011;19043;51.012;5.648;2024-03-08T11:12:46;19.30;;;11.98;;
32633;SDS011;19043;51.012;5.648;2024-03-08T11:15:13;20.38;;;12.93;;
32633;SDS011;19043;51.012;5.648;2024-03-08T11:20:25;15.90;;;10.83;;
32633;SDS011;19043;51.012;5.648;2024-03-08T11:22:53;16.70;;;11.70;;
32633;SDS011;19043;51.012;5.648;2024-03-08T11:25:31;17.13;;;11.13;;
32633;SDS011;19043;51.012;5.648;2024-03-08T11:28:07;14.57;;;10.05;;
32633;SDS011;19043;51.012;5.648;2024-03-08T11:30:33;16.25;;;11.23;;
32633;SDS011;19043;51.012;5.648;2024-03-08T11:33:00;18.90;;;11.95;;
32633;SDS011;19043;51.012;5.648;2024-03-08T11:35:26;19.50;;;11.63;;
32633;SDS011;19043;51.012;5.648;2024-03-08T11:37:52;16.05;;;11.07;;
32633;SDS011;19043;51.012;5.648;2024-03-08T11:40:17;15.70;;;11.45;;
32633;SDS011;19043;51.012;5.648;2024-03-08T11:42:44;15.63;;;10.52;;
32633;SDS011;19043;51.012;5.648;2024-03-08T11:45:12;15.75;;;10.52;;
32633;SDS011;19043;51.012;5.648;2024-03-08T11:47:38;16.88;;;11.43;;
32633;SDS011;19043;51.012;5.648;2024-03-08T11:50:05;18.75;;;11.65;;
32633;SDS011;19043;51.012;5.648;2024-03-08T11:52:35;16.67;;;11.57;;
32633;SDS011;19043;51.012;5.648;2024-03-08T11:55:01;17.42;;;10.90;;
32633;SDS011;19043;51.012;5.648;2024-03-08T11:57:26;14.57;;;10.77;;
32633;SDS011;19043;51.012;5.648;2024-03-08T11:59:53;15.35;;;10.30;;
32633;SDS011;19043;51.012;5.648;2024-03-08T12:02:20;20.63;;;11.00;;
32633;SDS011;19043;51.012;5.648;2024-03-08T12:04:45;14.63;;;10.63;;
32633;SDS011;19043;51.012;5.648;2024-03-08T12:07:14;14.85;;;10.82;;
32633;SDS011;19043;51.012;5.648;2024-03-08T12:09:43;16.95;;;10.32;;
32633;SDS011;19043;51.012;5.648;2024-03-08T12:12:11;16.65;;;11.00;;
32633;SDS011;19043;51.012;5.648;2024-03-08T12:14:37;16.65;;;10.20;;
32633;SDS011;19043;51.012;5.648;2024-03-08T12:17:03;15.73;;;10.38;;
32633;SDS011;19043;51.012;5.648;2024-03-08T12:19:29;15.10;;;9.85;;
32633;SDS011;19043;51.012;5.648;2024-03-08T12:21:55;12.23;;;9.73;;
32633;SDS011;19043;51.012;5.648;2024-03-08T12:24:20;13.73;;;10.32;;
32633;SDS011;19043;51.012;5.648;2024-03-08T12:26:46;13.40;;;9.70;;
32633;SDS011;19043;51.012;5.648;2024-03-08T12:29:20;13.02;;;9.93;;
32633;SDS011;19043;51.012;5.648;2024-03-08T12:34:12;11.03;;;9.27;;
32633;SDS011;19043;51.012;5.648;2024-03-08T12:36:43;12.18;;;10.00;;
32633;SDS011;19043;51.012;5.648;2024-03-08T12:39:09;13.23;;;9.65;;
32633;SDS011;19043;51.012;5.648;2024-03-08T12:41:40;17.33;;;10.35;;
32633;SDS011;19043;51.012;5.648;2024-03-08T12:44:08;13.10;;;8.70;;
32633;SDS011;19043;51.012;5.648;2024-03-08T12:46:36;13.38;;;8.80;;
32633;SDS011;19043;51.012;5.648;2024-03-08T12:49:01;12.55;;;9.05;;
32633;SDS011;19043;51.012;5.648;2024-03-08T12:51:29;13.63;;;10.48;;
32633;SDS011;19043;51.012;5.648;2024-03-08T12:53:55;14.13;;;10.18;;
32633;SDS011;19043;51.012;5.648;2024-03-08T12:56:32;12.57;;;9.98;;
32633;SDS011;19043;51.012;5.648;2024-03-08T12:58:59;14.25;;;9.55;;
32633;SDS011;19043;51.012;5.648;2024-03-08T13:01:24;11.48;;;9.18;;
32633;SDS011;19043;51.012;5.648;2024-03-08T13:03:49;13.27;;;9.80;;
32633;SDS011;19043;51.012;5.648;2024-03-08T13:06:15;15.13;;;9.98;;
32633;SDS011;19043;51.012;5.648;2024-03-08T13:08:41;11.95;;;8.93;;
32633;SDS011;19043;51.012;5.648;2024-03-08T13:11:09;13.07;;;9.40;;
32633;SDS011;19043;51.012;5.648;2024-03-08T13:13:37;16.05;;;9.48;;
32633;SDS011;19043;51.012;5.648;2024-03-08T13:16:05;12.10;;;8.98;;
32633;SDS011;19043;51.012;5.648;2024-03-08T13:18:33;12.07;;;9.10;;
32633;SDS011;19043;51.012;5.648;2024-03-08T13:20:58;14.10;;;9.70;;
32633;SDS011;19043;51.012;5.648;2024-03-08T13:23:24;13.43;;;10.15;;
32633;SDS011;19043;51.012;5.648;2024-03-08T13:25:49;11.07;;;9.00;;
32633;SDS011;19043;51.012;5.648;2024-03-08T13:28:15;15.52;;;9.75;;
32633;SDS011;19043;51.012;5.648;2024-03-08T13:30:42;11.48;;;9.10;;
32633;SDS011;19043;51.012;5.648;2024-03-08T13:33:09;12.70;;;9.45;;
32633;SDS011;19043;51.012;5.648;2024-03-08T13:35:34;12.57;;;9.43;;
32633;SDS011;19043;51.012;5.648;2024-03-08T13:38:00;12.80;;;9.43;;
32633;SDS011;19043;51.012;5.648;2024-03-08T13:40:28;14.27;;;9.65;;
32633;SDS011;19043;51.012;5.648;2024-03-08T13:42:53;13.25;;;9.85;;
32633;SDS011;19043;51.012;5.648;2024-03-08T13:45:18;14.33;;;9.77;;
32633;SDS011;19043;51.012;5.648;2024-03-08T13:47:47;11.95;;;8.57;;
32633;SDS011;19043;51.012;5.648;2024-03-08T13:50:12;12.32;;;9.02;;
32633;SDS011;19043;51.012;5.648;2024-03-08T13:52:38;13.13;;;8.50;;
32633;SDS011;19043;51.012;5.648;2024-03-08T13:55:04;12.63;;;9.07;;
32633;SDS011;19043;51.012;5.648;2024-03-08T13:57:30;13.48;;;8.98;;
32633;SDS011;19043;51.012;5.648;2024-03-08T13:59:55;11.88;;;9.00;;
32633;SDS011;19043;51.012;5.648;2024-03-08T14:02:20;12.48;;;8.48;;
32633;SDS011;19043;51.012;5.648;2024-03-08T14:04:47;10.85;;;8.18;;
32633;SDS011;19043;51.012;5.648;2024-03-08T14:07:14;11.90;;;8.98;;
32633;SDS011;19043;51.012;5.648;2024-03-08T14:09:41;11.00;;;8.48;;
32633;SDS011;19043;51.012;5.648;2024-03-08T14:12:08;14.20;;;8.85;;
32633;SDS011;19043;51.012;5.648;2024-03-08T14:14:33;12.25;;;8.80;;
32633;SDS011;19043;51.012;5.648;2024-03-08T14:17:00;11.27;;;8.10;;
32633;SDS011;19043;51.012;5.648;2024-03-08T14:19:26;14.02;;;9.98;;
32633;SDS011;19043;51.012;5.648;2024-03-08T14:21:52;11.27;;;8.38;;
32633;SDS011;19043;51.012;5.648;2024-03-08T14:24:18;9.75;;;8.13;;
32633;SDS011;19043;51.012;5.648;2024-03-08T14:26:44;10.70;;;7.90;;